sensor_id;sensor_type;location;lat;lon;timestamp;temperature;humidity
15636;DHT22;7917;50.818;6.972;2024-02-16T00:01:58;11.60;99.90
15636;DHT22;7917;50.818;6.972;2024-02-16T00:04:24;11.60;99.90
15636;DHT22;7917;50.818;6.972;2024-02-16T00:06:51;11.60;99.90
15636;DHT22;7917;50.818;6.972;2024-02-16T00:09:18;11.60;99.90
15636;DHT22;7917;50.818;6.972;2024-02-16T00:11:45;11.60;99.90
15636;DHT22;7917;50.818;6.972;2024-02-16T00:14:13;11.60;99.90
15636;DHT22;7917;50.818;6.972;2024-02-16T00:16:39;11.70;99.90
15636;DHT22;7917;50.818;6.972;2024-02-16T00:19:06;11.70;99.90
15636;DHT22;7917;50.818;6.972;2024-02-16T00:21:32;11.70;99.90
15636;DHT22;7917;50.818;6.972;2024-02-16T00:23:59;11.60;99.90
15636;DHT22;7917;50.818;6.972;2024-02-16T00:26:29;11.70;99.90
15636;DHT22;7917;50.818;6.972;2024-02-16T00:28:55;11.60;99.90
15636;DHT22;7917;50.818;6.972;2024-02-16T00:31:22;11.60;99.90
15636;DHT22;7917;50.818;6.972;2024-02-16T00:33:48;11.60;99.90
15636;DHT22;7917;50.818;6.972;2024-02-16T00:36:15;11.70;99.90
15636;DHT22;7917;50.818;6.972;2024-02-16T00:38:41;11.70;99.90
15636;DHT22;7917;50.818;6.972;2024-02-16T00:41:08;11.70;99.90
15636;DHT22;7917;50.818;6.972;2024-02-16T00:43:35;11.70;99.90
15636;DHT22;7917;50.818;6.972;2024-02-16T00:46:01;11.70;99.90
15636;DHT22;7917;50.818;6.972;2024-02-16T00:48:28;11.60;99.90
15636;DHT22;7917;50.818;6.972;2024-02-16T00:50:55;11.70;99.90
15636;DHT22;7917;50.818;6.972;2024-02-16T00:53:21;11.70;99.90
15636;DHT22;7917;50.818;6.972;2024-02-16T00:55:48;11.80;99.90
15636;DHT22;7917;50.818;6.972;2024-02-16T00:58:14;11.90;99.90
15636;DHT22;7917;50.818;6.972;2024-02-16T01:00:42;11.90;99.90
15636;DHT22;7917;50.818;6.972;2024-02-16T01:03:09;11.90;99.90
15636;DHT22;7917;50.818;6.972;2024-02-16T01:05:36;11.80;99.90
15636;DHT22;7917;50.818;6.972;2024-02-16T01:08:02;11.80;99.90
15636;DHT22;7917;50.818;6.972;2024-02-16T01:10:29;11.80;99.90
15636;DHT22;7917;50.818;6.972;2024-02-16T01:12:55;11.80;99.90
15636;DHT22;7917;50.818;6.972;2024-02-16T01:15:22;11.70;99.90
15636;DHT22;7917;50.818;6.972;2024-02-16T01:17:53;11.70;99.90
15636;DHT22;7917;50.818;6.972;2024-02-16T01:20:19;11.70;99.90
15636;DHT22;7917;50.818;6.972;2024-02-16T01:22:46;11.70;99.90
15636;DHT22;7917;50.818;6.972;2024-02-16T01:25:12;11.70;99.90
15636;DHT22;7917;50.818;6.972;2024-02-16T01:27:39;11.70;99.90
15636;DHT22;7917;50.818;6.972;2024-02-16T01:30:07;11.70;99.90
15636;DHT22;7917;50.818;6.972;2024-02-16T01:32:34;11.80;99.90
15636;DHT22;7917;50.818;6.972;2024-02-16T01:35:01;11.70;99.90
15636;DHT22;7917;50.818;6.972;2024-02-16T01:37:33;11.70;99.90
15636;DHT22;7917;50.818;6.972;2024-02-16T01:40:00;11.80;99.90
15636;DHT22;7917;50.818;6.972;2024-02-16T01:42:28;11.90;99.90
15636;DHT22;7917;50.818;6.972;2024-02-16T01:44:54;11.80;99.90
15636;DHT22;7917;50.818;6.972;2024-02-16T01:47:20;11.80;99.90
15636;DHT22;7917;50.818;6.972;2024-02-16T01:49:47;11.90;99.90
15636;DHT22;7917;50.818;6.972;2024-02-16T01:52:14;11.90;99.90
15636;DHT22;7917;50.818;6.972;2024-02-16T01:54:40;11.90;99.90
15636;DHT22;7917;50.818;6.972;2024-02-16T01:57:07;11.90;99.90
15636;DHT22;7917;50.818;6.972;2024-02-16T01:59:34;11.90;99.90
15636;DHT22;7917;50.818;6.972;2024-02-16T02:02:01;11.90;99.90
15636;DHT22;7917;50.818;6.972;2024-02-16T02:04:28;11.90;99.90
15636;DHT22;7917;50.818;6.972;2024-02-16T02:06:55;11.90;99.90
15636;DHT22;7917;50.818;6.972;2024-02-16T02:09:22;11.90;99.90
15636;DHT22;7917;50.818;6.972;2024-02-16T02:11:48;11.80;99.90
15636;DHT22;7917;50.818;6.972;2024-02-16T02:14:15;11.80;99.90
15636;DHT22;7917;50.818;6.972;2024-02-16T02:16:41;11.80;99.90
15636;DHT22;7917;50.818;6.972;2024-02-16T02:19:08;11.80;99.90
15636;DHT22;7917;50.818;6.972;2024-02-16T02:21:34;11.80;99.90
15636;DHT22;7917;50.818;6.972;2024-02-16T02:24:01;11.70;99.90
15636;DHT22;7917;50.818;6.972;2024-02-16T02:26:28;11.70;99.90
15636;DHT22;7917;50.818;6.972;2024-02-16T02:28:54;11.70;99.90
15636;DHT22;7917;50.818;6.972;2024-02-16T02:31:21;11.80;99.90
15636;DHT22;7917;50.818;6.972;2024-02-16T02:33:47;11.70;99.90
15636;DHT22;7917;50.818;6.972;2024-02-16T02:36:13;11.60;99.90
15636;DHT22;7917;50.818;6.972;2024-02-16T02:38:40;11.70;99.90
15636;DHT22;7917;50.818;6.972;2024-02-16T02:41:07;11.60;99.90
15636;DHT22;7917;50.818;6.972;2024-02-16T02:43:33;11.70;99.90
15636;DHT22;7917;50.818;6.972;2024-02-16T02:46:00;11.60;99.90
15636;DHT22;7917;50.818;6.972;2024-02-16T02:48:26;11.50;99.90
15636;DHT22;7917;50.818;6.972;2024-02-16T02:50:52;11.40;99.90
15636;DHT22;7917;50.818;6.972;2024-02-16T02:53:19;11.50;99.90
15636;DHT22;7917;50.818;6.972;2024-02-16T02:55:45;11.50;99.90
15636;DHT22;7917;50.818;6.972;2024-02-16T02:58:12;11.50;99.90
15636;DHT22;7917;50.818;6.972;2024-02-16T03:00:38;11.50;99.90
15636;DHT22;7917;50.818;6.972;2024-02-16T03:03:05;11.60;99.90
15636;DHT22;7917;50.818;6.972;2024-02-16T03:05:31;11.60;99.90
15636;DHT22;7917;50.818;6.972;2024-02-16T03:07:58;11.50;99.90
15636;DHT22;7917;50.818;6.972;2024-02-16T03:10:26;11.50;99.90
15636;DHT22;7917;50.818;6.972;2024-02-16T03:12:57;11.50;99.90
15636;DHT22;7917;50.818;6.972;2024-02-16T03:15:24;11.50;99.90
15636;DHT22;7917;50.818;6.972;2024-02-16T03:17:50;11.60;99.90
15636;DHT22;7917;50.818;6.972;2024-02-16T03:20:16;11.50;99.90
15636;DHT22;7917;50.818;6.972;2024-02-16T03:22:43;11.60;99.90
15636;DHT22;7917;50.818;6.972;2024-02-16T03:25:09;11.60;99.90
15636;DHT22;7917;50.818;6.972;2024-02-16T03:27:36;11.50;99.90
15636;DHT22;7917;50.818;6.972;2024-02-16T03:30:03;11.60;99.90
15636;DHT22;7917;50.818;6.972;2024-02-16T03:32:31;11.60;99.90
15636;DHT22;7917;50.818;6.972;2024-02-16T03:34:58;11.60;99.90
15636;DHT22;7917;50.818;6.972;2024-02-16T03:37:24;11.50;99.90
15636;DHT22;7917;50.818;6.972;2024-02-16T03:39:51;11.60;99.90
15636;DHT22;7917;50.818;6.972;2024-02-16T03:42:17;11.60;99.90
15636;DHT22;7917;50.818;6.972;2024-02-16T03:44:45;11.60;99.90
15636;DHT22;7917;50.818;6.972;2024-02-16T03:47:12;11.60;99.90
15636;DHT22;7917;50.818;6.972;2024-02-16T03:49:39;11.70;99.90
15636;DHT22;7917;50.818;6.972;2024-02-16T03:52:05;11.70;99.90
15636;DHT22;7917;50.818;6.972;2024-02-16T03:54:32;11.70;99.90
15636;DHT22;7917;50.818;6.972;2024-02-16T03:56:58;11.70;99.90
15636;DHT22;7917;50.818;6.972;2024-02-16T03:59:24;11.60;99.90
15636;DHT22;7917;50.818;6.972;2024-02-16T04:05:14;11.60;99.90
15636;DHT22;7917;50.818;6.972;2024-02-16T04:07:40;11.50;99.90
15636;DHT22;7917;50.818;6.972;2024-02-16T04:10:08;11.50;99.90
15636;DHT22;7917;50.818;6.972;2024-02-16T04:12:34;11.60;99.90
15636;DHT22;7917;50.818;6.972;2024-02-16T04:15:02;11.60;99.90
15636;DHT22;7917;50.818;6.972;2024-02-16T04:17:29;11.60;99.90
15636;DHT22;7917;50.818;6.972;2024-02-16T04:19:56;11.60;99.90
15636;DHT22;7917;50.818;6.972;2024-02-16T04:22:23;11.70;99.90
15636;DHT22;7917;50.818;6.972;2024-02-16T04:24:50;11.70;99.90
15636;DHT22;7917;50.818;6.972;2024-02-16T04:27:17;11.60;99.90
15636;DHT22;7917;50.818;6.972;2024-02-16T04:29:44;11.60;99.90
15636;DHT22;7917;50.818;6.972;2024-02-16T04:32:10;11.60;99.90
15636;DHT22;7917;50.818;6.972;2024-02-16T04:34:37;11.70;99.90
15636;DHT22;7917;50.818;6.972;2024-02-16T04:37:05;11.70;99.90
15636;DHT22;7917;50.818;6.972;2024-02-16T04:39:33;11.70;99.90
15636;DHT22;7917;50.818;6.972;2024-02-16T04:42:00;11.60;99.90
15636;DHT22;7917;50.818;6.972;2024-02-16T04:44:26;11.70;99.90
15636;DHT22;7917;50.818;6.972;2024-02-16T04:46:53;11.60;99.90
15636;DHT22;7917;50.818;6.972;2024-02-16T04:49:20;11.60;99.90
15636;DHT22;7917;50.818;6.972;2024-02-16T04:51:47;11.50;99.90
15636;DHT22;7917;50.818;6.972;2024-02-16T04:54:14;11.50;99.90
15636;DHT22;7917;50.818;6.972;2024-02-16T04:56:41;11.40;99.90
15636;DHT22;7917;50.818;6.972;2024-02-16T04:59:08;11.50;99.90
15636;DHT22;7917;50.818;6.972;2024-02-16T05:01:35;11.40;99.90
15636;DHT22;7917;50.818;6.972;2024-02-16T05:04:02;11.40;99.90
15636;DHT22;7917;50.818;6.972;2024-02-16T05:06:31;11.40;99.90
15636;DHT22;7917;50.818;6.972;2024-02-16T05:08:58;11.50;99.90
15636;DHT22;7917;50.818;6.972;2024-02-16T05:11:25;11.60;99.90
15636;DHT22;7917;50.818;6.972;2024-02-16T05:13:53;11.50;99.90
15636;DHT22;7917;50.818;6.972;2024-02-16T05:16:20;11.60;99.90
15636;DHT22;7917;50.818;6.972;2024-02-16T05:18:50;11.60;99.90
15636;DHT22;7917;50.818;6.972;2024-02-16T05:21:16;11.60;99.90
15636;DHT22;7917;50.818;6.972;2024-02-16T05:23:43;11.60;99.90
15636;DHT22;7917;50.818;6.972;2024-02-16T05:26:10;11.70;99.90
15636;DHT22;7917;50.818;6.972;2024-02-16T05:28:37;11.70;99.90
15636;DHT22;7917;50.818;6.972;2024-02-16T05:31:13;11.80;99.90
15636;DHT22;7917;50.818;6.972;2024-02-16T05:33:41;11.80;99.90
15636;DHT22;7917;50.818;6.972;2024-02-16T05:36:08;11.70;99.90
15636;DHT22;7917;50.818;6.972;2024-02-16T05:38:35;11.70;99.90
15636;DHT22;7917;50.818;6.972;2024-02-16T05:41:09;11.80;99.90
15636;DHT22;7917;50.818;6.972;2024-02-16T05:43:37;11.80;99.90
15636;DHT22;7917;50.818;6.972;2024-02-16T05:46:05;11.80;99.90
15636;DHT22;7917;50.818;6.972;2024-02-16T05:48:33;11.70;99.90
15636;DHT22;7917;50.818;6.972;2024-02-16T05:51:03;11.70;99.90
15636;DHT22;7917;50.818;6.972;2024-02-16T05:53:31;11.60;99.90
15636;DHT22;7917;50.818;6.972;2024-02-16T05:55:59;11.60;99.90
15636;DHT22;7917;50.818;6.972;2024-02-16T05:58:26;11.50;99.90
15636;DHT22;7917;50.818;6.972;2024-02-16T06:00:53;11.60;99.90
15636;DHT22;7917;50.818;6.972;2024-02-16T06:03:22;11.60;99.90
15636;DHT22;7917;50.818;6.972;2024-02-16T06:05:48;11.50;99.90
15636;DHT22;7917;50.818;6.972;2024-02-16T06:08:15;11.50;99.90
15636;DHT22;7917;50.818;6.972;2024-02-16T06:10:43;11.50;99.90
15636;DHT22;7917;50.818;6.972;2024-02-16T06:13:16;11.40;99.90
15636;DHT22;7917;50.818;6.972;2024-02-16T06:15:43;11.40;99.90
15636;DHT22;7917;50.818;6.972;2024-02-16T06:18:10;11.40;99.90
15636;DHT22;7917;50.818;6.972;2024-02-16T06:20:38;11.40;99.90
15636;DHT22;7917;50.818;6.972;2024-02-16T06:23:04;11.40;99.90
15636;DHT22;7917;50.818;6.972;2024-02-16T06:25:32;11.50;99.90
15636;DHT22;7917;50.818;6.972;2024-02-16T06:27:59;11.60;99.90
15636;DHT22;7917;50.818;6.972;2024-02-16T06:30:26;11.70;99.90
15636;DHT22;7917;50.818;6.972;2024-02-16T06:32:52;11.80;99.90
15636;DHT22;7917;50.818;6.972;2024-02-16T06:35:23;11.80;99.90
15636;DHT22;7917;50.818;6.972;2024-02-16T06:37:54;11.90;99.90
15636;DHT22;7917;50.818;6.972;2024-02-16T06:40:21;12.00;99.90
15636;DHT22;7917;50.818;6.972;2024-02-16T06:43:09;12.00;99.90
15636;DHT22;7917;50.818;6.972;2024-02-16T06:45:36;12.00;99.90
15636;DHT22;7917;50.818;6.972;2024-02-16T06:48:03;12.00;99.90
15636;DHT22;7917;50.818;6.972;2024-02-16T06:50:30;12.10;99.90
15636;DHT22;7917;50.818;6.972;2024-02-16T06:52:57;12.20;99.90
15636;DHT22;7917;50.818;6.972;2024-02-16T06:55:25;12.10;99.90
15636;DHT22;7917;50.818;6.972;2024-02-16T06:57:52;12.00;99.90
15636;DHT22;7917;50.818;6.972;2024-02-16T07:00:19;12.10;99.90
15636;DHT22;7917;50.818;6.972;2024-02-16T07:02:47;12.10;99.90
15636;DHT22;7917;50.818;6.972;2024-02-16T07:05:14;12.00;99.90
15636;DHT22;7917;50.818;6.972;2024-02-16T07:07:41;12.10;99.90
15636;DHT22;7917;50.818;6.972;2024-02-16T07:10:09;12.10;99.90
15636;DHT22;7917;50.818;6.972;2024-02-16T07:12:39;12.00;99.90
15636;DHT22;7917;50.818;6.972;2024-02-16T07:15:07;12.00;99.90
15636;DHT22;7917;50.818;6.972;2024-02-16T07:17:35;12.00;99.90
15636;DHT22;7917;50.818;6.972;2024-02-16T07:20:03;12.10;99.90
15636;DHT22;7917;50.818;6.972;2024-02-16T07:22:30;12.10;99.90
15636;DHT22;7917;50.818;6.972;2024-02-16T07:24:58;12.10;99.90
15636;DHT22;7917;50.818;6.972;2024-02-16T07:27:27;12.10;99.90
15636;DHT22;7917;50.818;6.972;2024-02-16T07:29:54;12.10;99.90
15636;DHT22;7917;50.818;6.972;2024-02-16T07:32:21;12.10;99.90
15636;DHT22;7917;50.818;6.972;2024-02-16T07:34:48;12.20;99.90
15636;DHT22;7917;50.818;6.972;2024-02-16T07:37:15;12.30;99.90
15636;DHT22;7917;50.818;6.972;2024-02-16T07:39:42;12.40;99.90
15636;DHT22;7917;50.818;6.972;2024-02-16T07:42:09;12.40;99.90
15636;DHT22;7917;50.818;6.972;2024-02-16T07:44:36;12.40;99.90
15636;DHT22;7917;50.818;6.972;2024-02-16T07:47:03;12.50;99.90
15636;DHT22;7917;50.818;6.972;2024-02-16T07:49:30;12.60;99.90
15636;DHT22;7917;50.818;6.972;2024-02-16T07:51:58;12.60;99.90
15636;DHT22;7917;50.818;6.972;2024-02-16T07:54:25;12.60;99.90
15636;DHT22;7917;50.818;6.972;2024-02-16T07:56:52;12.70;99.90
15636;DHT22;7917;50.818;6.972;2024-02-16T07:59:19;12.70;99.90
15636;DHT22;7917;50.818;6.972;2024-02-16T08:01:46;12.70;99.90
15636;DHT22;7917;50.818;6.972;2024-02-16T08:04:13;12.70;99.90
15636;DHT22;7917;50.818;6.972;2024-02-16T08:06:40;12.80;99.90
15636;DHT22;7917;50.818;6.972;2024-02-16T08:09:07;12.80;99.90
15636;DHT22;7917;50.818;6.972;2024-02-16T08:11:34;12.80;99.90
15636;DHT22;7917;50.818;6.972;2024-02-16T08:14:01;12.90;99.90
15636;DHT22;7917;50.818;6.972;2024-02-16T08:16:29;12.80;99.90
15636;DHT22;7917;50.818;6.972;2024-02-16T08:18:56;12.90;99.90
15636;DHT22;7917;50.818;6.972;2024-02-16T08:21:23;12.90;99.90
15636;DHT22;7917;50.818;6.972;2024-02-16T08:23:50;12.90;99.90
15636;DHT22;7917;50.818;6.972;2024-02-16T08:26:17;12.90;99.90
15636;DHT22;7917;50.818;6.972;2024-02-16T08:28:44;12.90;99.90
15636;DHT22;7917;50.818;6.972;2024-02-16T08:31:15;12.90;99.90
15636;DHT22;7917;50.818;6.972;2024-02-16T08:33:43;12.90;99.90
15636;DHT22;7917;50.818;6.972;2024-02-16T08:36:12;12.90;99.90
15636;DHT22;7917;50.818;6.972;2024-02-16T08:38:38;13.00;99.90
15636;DHT22;7917;50.818;6.972;2024-02-16T08:41:05;13.10;99.90
15636;DHT22;7917;50.818;6.972;2024-02-16T08:43:33;13.20;99.90
15636;DHT22;7917;50.818;6.972;2024-02-16T08:46:00;13.20;99.90
15636;DHT22;7917;50.818;6.972;2024-02-16T08:48:27;13.30;99.90
15636;DHT22;7917;50.818;6.972;2024-02-16T08:50:54;13.30;99.90
15636;DHT22;7917;50.818;6.972;2024-02-16T08:53:22;13.40;99.90
15636;DHT22;7917;50.818;6.972;2024-02-16T08:55:48;13.50;99.90
15636;DHT22;7917;50.818;6.972;2024-02-16T08:58:15;13.60;99.90
15636;DHT22;7917;50.818;6.972;2024-02-16T09:00:42;13.50;99.90
15636;DHT22;7917;50.818;6.972;2024-02-16T09:03:10;13.50;99.90
15636;DHT22;7917;50.818;6.972;2024-02-16T09:05:36;13.50;99.90
15636;DHT22;7917;50.818;6.972;2024-02-16T09:08:04;13.60;99.90
15636;DHT22;7917;50.818;6.972;2024-02-16T09:10:32;13.50;99.90
15636;DHT22;7917;50.818;6.972;2024-02-16T09:13:00;13.50;99.90
15636;DHT22;7917;50.818;6.972;2024-02-16T09:15:27;13.60;99.90
15636;DHT22;7917;50.818;6.972;2024-02-16T09:17:54;13.50;99.90
15636;DHT22;7917;50.818;6.972;2024-02-16T09:20:21;13.60;99.90
15636;DHT22;7917;50.818;6.972;2024-02-16T09:22:48;13.60;99.90
15636;DHT22;7917;50.818;6.972;2024-02-16T09:25:15;13.60;99.90
15636;DHT22;7917;50.818;6.972;2024-02-16T09:27:43;13.60;99.90
15636;DHT22;7917;50.818;6.972;2024-02-16T09:30:11;13.60;99.90
15636;DHT22;7917;50.818;6.972;2024-02-16T09:32:39;13.60;99.90
15636;DHT22;7917;50.818;6.972;2024-02-16T09:35:07;13.50;99.90
15636;DHT22;7917;50.818;6.972;2024-02-16T09:37:35;13.50;99.90
15636;DHT22;7917;50.818;6.972;2024-02-16T09:40:04;13.40;99.90
15636;DHT22;7917;50.818;6.972;2024-02-16T09:42:31;13.50;99.90
15636;DHT22;7917;50.818;6.972;2024-02-16T09:45:00;13.50;99.90
15636;DHT22;7917;50.818;6.972;2024-02-16T09:47:28;13.60;99.90
15636;DHT22;7917;50.818;6.972;2024-02-16T09:49:59;13.60;99.90
15636;DHT22;7917;50.818;6.972;2024-02-16T09:52:26;13.50;99.90
15636;DHT22;7917;50.818;6.972;2024-02-16T09:54:53;13.50;99.90
15636;DHT22;7917;50.818;6.972;2024-02-16T09:57:21;13.60;99.90
15636;DHT22;7917;50.818;6.972;2024-02-16T09:59:48;13.50;99.90
15636;DHT22;7917;50.818;6.972;2024-02-16T10:02:16;13.50;99.90
15636;DHT22;7917;50.818;6.972;2024-02-16T10:04:46;13.40;99.90
15636;DHT22;7917;50.818;6.972;2024-02-16T10:07:13;13.40;99.90
15636;DHT22;7917;50.818;6.972;2024-02-16T10:09:40;13.30;99.90
15636;DHT22;7917;50.818;6.972;2024-02-16T10:12:07;13.30;99.90
15636;DHT22;7917;50.818;6.972;2024-02-16T10:14:35;13.20;99.90
15636;DHT22;7917;50.818;6.972;2024-02-16T10:17:02;13.20;99.90
15636;DHT22;7917;50.818;6.972;2024-02-16T10:19:31;13.10;99.90
15636;DHT22;7917;50.818;6.972;2024-02-16T10:22:08;13.10;99.90
15636;DHT22;7917;50.818;6.972;2024-02-16T10:24:35;13.00;99.90
15636;DHT22;7917;50.818;6.972;2024-02-16T10:27:05;13.00;99.90
15636;DHT22;7917;50.818;6.972;2024-02-16T10:29:33;13.00;99.90
15636;DHT22;7917;50.818;6.972;2024-02-16T10:32:00;13.00;99.90
15636;DHT22;7917;50.818;6.972;2024-02-16T10:34:29;13.00;99.90
15636;DHT22;7917;50.818;6.972;2024-02-16T10:36:57;13.00;99.90
15636;DHT22;7917;50.818;6.972;2024-02-16T10:39:26;13.00;99.90
15636;DHT22;7917;50.818;6.972;2024-02-16T10:41:54;13.10;99.90
15636;DHT22;7917;50.818;6.972;2024-02-16T10:44:23;13.10;99.90
15636;DHT22;7917;50.818;6.972;2024-02-16T10:46:50;13.10;99.90
15636;DHT22;7917;50.818;6.972;2024-02-16T10:49:18;13.10;99.90
15636;DHT22;7917;50.818;6.972;2024-02-16T10:51:48;13.10;99.90
15636;DHT22;7917;50.818;6.972;2024-02-16T10:54:19;13.10;99.90
15636;DHT22;7917;50.818;6.972;2024-02-16T10:56:49;13.10;99.90
15636;DHT22;7917;50.818;6.972;2024-02-16T10:59:19;13.20;99.90
15636;DHT22;7917;50.818;6.972;2024-02-16T11:01:46;13.20;99.90
15636;DHT22;7917;50.818;6.972;2024-02-16T11:04:16;13.30;99.90
15636;DHT22;7917;50.818;6.972;2024-02-16T11:06:47;13.30;99.90
15636;DHT22;7917;50.818;6.972;2024-02-16T11:09:26;13.30;99.90
15636;DHT22;7917;50.818;6.972;2024-02-16T11:11:54;13.40;99.90
15636;DHT22;7917;50.818;6.972;2024-02-16T11:14:22;13.40;99.90
15636;DHT22;7917;50.818;6.972;2024-02-16T11:16:54;13.50;99.90
15636;DHT22;7917;50.818;6.972;2024-02-16T11:19:22;13.50;99.90
15636;DHT22;7917;50.818;6.972;2024-02-16T11:21:57;13.60;99.90
15636;DHT22;7917;50.818;6.972;2024-02-16T11:24:34;13.60;99.90
15636;DHT22;7917;50.818;6.972;2024-02-16T11:27:04;13.60;99.90
15636;DHT22;7917;50.818;6.972;2024-02-16T11:29:32;13.70;99.90
15636;DHT22;7917;50.818;6.972;2024-02-16T11:32:00;13.70;99.90
15636;DHT22;7917;50.818;6.972;2024-02-16T11:34:27;13.70;99.90
15636;DHT22;7917;50.818;6.972;2024-02-16T11:36:56;13.70;99.90
15636;DHT22;7917;50.818;6.972;2024-02-16T11:39:23;13.80;99.90
15636;DHT22;7917;50.818;6.972;2024-02-16T11:42:00;13.90;99.90
15636;DHT22;7917;50.818;6.972;2024-02-16T11:44:28;14.10;99.90
15636;DHT22;7917;50.818;6.972;2024-02-16T11:46:55;14.10;99.90
15636;DHT22;7917;50.818;6.972;2024-02-16T11:49:22;14.30;99.90
15636;DHT22;7917;50.818;6.972;2024-02-16T11:51:49;14.40;99.90
15636;DHT22;7917;50.818;6.972;2024-02-16T11:54:17;14.50;99.90
15636;DHT22;7917;50.818;6.972;2024-02-16T11:56:44;14.50;99.90
15636;DHT22;7917;50.818;6.972;2024-02-16T11:59:13;14.50;99.90
15636;DHT22;7917;50.818;6.972;2024-02-16T12:01:49;14.50;99.90
15636;DHT22;7917;50.818;6.972;2024-02-16T12:04:21;14.50;99.90
15636;DHT22;7917;50.818;6.972;2024-02-16T12:06:50;14.50;99.90
15636;DHT22;7917;50.818;6.972;2024-02-16T12:09:19;14.50;99.90
15636;DHT22;7917;50.818;6.972;2024-02-16T12:11:47;14.40;99.90
15636;DHT22;7917;50.818;6.972;2024-02-16T12:14:15;14.30;99.90
15636;DHT22;7917;50.818;6.972;2024-02-16T12:16:42;14.20;99.90
15636;DHT22;7917;50.818;6.972;2024-02-16T12:19:12;14.10;99.90
15636;DHT22;7917;50.818;6.972;2024-02-16T12:21:39;14.10;99.90
15636;DHT22;7917;50.818;6.972;2024-02-16T12:24:06;14.10;99.90
15636;DHT22;7917;50.818;6.972;2024-02-16T12:26:34;14.00;99.90
15636;DHT22;7917;50.818;6.972;2024-02-16T12:29:01;14.00;99.90
15636;DHT22;7917;50.818;6.972;2024-02-16T12:31:30;14.00;99.90
15636;DHT22;7917;50.818;6.972;2024-02-16T12:33:57;14.00;99.90
15636;DHT22;7917;50.818;6.972;2024-02-16T12:36:24;13.90;99.90
15636;DHT22;7917;50.818;6.972;2024-02-16T12:38:52;13.90;99.90
15636;DHT22;7917;50.818;6.972;2024-02-16T12:41:19;13.90;99.90
15636;DHT22;7917;50.818;6.972;2024-02-16T12:43:47;13.90;99.90
15636;DHT22;7917;50.818;6.972;2024-02-16T12:46:15;13.90;99.90
15636;DHT22;7917;50.818;6.972;2024-02-16T12:48:42;13.90;99.90
15636;DHT22;7917;50.818;6.972;2024-02-16T12:51:15;14.00;99.90
15636;DHT22;7917;50.818;6.972;2024-02-16T12:53:42;14.10;99.90
15636;DHT22;7917;50.818;6.972;2024-02-16T12:56:10;14.20;99.90
15636;DHT22;7917;50.818;6.972;2024-02-16T12:58:37;14.20;99.90
15636;DHT22;7917;50.818;6.972;2024-02-16T13:01:05;14.20;99.90
15636;DHT22;7917;50.818;6.972;2024-02-16T13:03:34;14.20;99.90
15636;DHT22;7917;50.818;6.972;2024-02-16T13:06:01;14.20;99.90
15636;DHT22;7917;50.818;6.972;2024-02-16T13:08:28;14.20;99.90
15636;DHT22;7917;50.818;6.972;2024-02-16T13:10:56;14.20;99.90
15636;DHT22;7917;50.818;6.972;2024-02-16T13:13:22;14.10;99.90
15636;DHT22;7917;50.818;6.972;2024-02-16T13:15:52;14.10;99.90
15636;DHT22;7917;50.818;6.972;2024-02-16T13:18:20;14.10;99.90
15636;DHT22;7917;50.818;6.972;2024-02-16T13:20:47;14.10;99.90
15636;DHT22;7917;50.818;6.972;2024-02-16T13:23:14;14.00;99.90
15636;DHT22;7917;50.818;6.972;2024-02-16T13:25:41;13.90;99.90
15636;DHT22;7917;50.818;6.972;2024-02-16T13:28:09;13.80;99.90
15636;DHT22;7917;50.818;6.972;2024-02-16T13:30:35;13.80;99.90
15636;DHT22;7917;50.818;6.972;2024-02-16T13:33:03;13.80;99.90
15636;DHT22;7917;50.818;6.972;2024-02-16T13:35:32;13.60;99.90
15636;DHT22;7917;50.818;6.972;2024-02-16T13:38:00;13.60;99.90
15636;DHT22;7917;50.818;6.972;2024-02-16T13:40:27;13.50;99.90
15636;DHT22;7917;50.818;6.972;2024-02-16T13:42:54;13.50;99.90
15636;DHT22;7917;50.818;6.972;2024-02-16T13:45:27;13.40;99.90
15636;DHT22;7917;50.818;6.972;2024-02-16T13:47:59;13.40;99.90
15636;DHT22;7917;50.818;6.972;2024-02-16T13:50:27;13.40;99.90
15636;DHT22;7917;50.818;6.972;2024-02-16T13:52:54;13.30;99.90
15636;DHT22;7917;50.818;6.972;2024-02-16T13:55:23;13.30;99.90
15636;DHT22;7917;50.818;6.972;2024-02-16T13:57:53;13.30;99.90
15636;DHT22;7917;50.818;6.972;2024-02-16T14:00:20;13.30;99.90
15636;DHT22;7917;50.818;6.972;2024-02-16T14:02:50;13.30;99.90
15636;DHT22;7917;50.818;6.972;2024-02-16T14:05:17;13.30;99.90
15636;DHT22;7917;50.818;6.972;2024-02-16T14:07:44;13.40;99.90
15636;DHT22;7917;50.818;6.972;2024-02-16T14:10:12;13.30;99.90
15636;DHT22;7917;50.818;6.972;2024-02-16T14:12:39;13.30;99.90
15636;DHT22;7917;50.818;6.972;2024-02-16T14:15:07;13.30;99.90
15636;DHT22;7917;50.818;6.972;2024-02-16T14:17:41;13.40;99.90
15636;DHT22;7917;50.818;6.972;2024-02-16T14:20:08;13.40;99.90
15636;DHT22;7917;50.818;6.972;2024-02-16T14:22:36;13.40;99.90
15636;DHT22;7917;50.818;6.972;2024-02-16T14:25:11;13.50;99.90
15636;DHT22;7917;50.818;6.972;2024-02-16T14:27:39;13.50;99.90
15636;DHT22;7917;50.818;6.972;2024-02-16T14:30:08;13.40;99.90
15636;DHT22;7917;50.818;6.972;2024-02-16T14:32:38;13.40;99.90
15636;DHT22;7917;50.818;6.972;2024-02-16T14:35:06;13.40;99.90
15636;DHT22;7917;50.818;6.972;2024-02-16T14:37:33;13.40;99.90
15636;DHT22;7917;50.818;6.972;2024-02-16T14:40:00;13.40;99.90
15636;DHT22;7917;50.818;6.972;2024-02-16T14:42:28;13.40;99.90
15636;DHT22;7917;50.818;6.972;2024-02-16T14:44:55;13.30;99.90
15636;DHT22;7917;50.818;6.972;2024-02-16T14:47:22;13.30;99.90
15636;DHT22;7917;50.818;6.972;2024-02-16T14:49:49;13.30;99.90
15636;DHT22;7917;50.818;6.972;2024-02-16T14:52:16;13.30;99.90
15636;DHT22;7917;50.818;6.972;2024-02-16T14:54:43;13.30;99.90
15636;DHT22;7917;50.818;6.972;2024-02-16T14:57:13;13.30;99.90
15636;DHT22;7917;50.818;6.972;2024-02-16T14:59:47;13.30;99.90
15636;DHT22;7917;50.818;6.972;2024-02-16T15:02:16;13.30;99.90
15636;DHT22;7917;50.818;6.972;2024-02-16T15:04:43;13.20;99.90
15636;DHT22;7917;50.818;6.972;2024-02-16T15:07:10;13.20;99.90
15636;DHT22;7917;50.818;6.972;2024-02-16T15:09:37;13.20;99.90
15636;DHT22;7917;50.818;6.972;2024-02-16T15:12:05;13.20;99.90
15636;DHT22;7917;50.818;6.972;2024-02-16T15:14:32;13.10;99.90
15636;DHT22;7917;50.818;6.972;2024-02-16T15:17:00;13.10;99.90
15636;DHT22;7917;50.818;6.972;2024-02-16T15:19:28;13.10;99.90
15636;DHT22;7917;50.818;6.972;2024-02-16T15:21:56;13.10;99.90
15636;DHT22;7917;50.818;6.972;2024-02-16T15:24:23;13.10;99.90
15636;DHT22;7917;50.818;6.972;2024-02-16T15:26:50;13.10;99.90
15636;DHT22;7917;50.818;6.972;2024-02-16T15:29:17;13.20;99.90
15636;DHT22;7917;50.818;6.972;2024-02-16T15:31:44;13.20;99.90
15636;DHT22;7917;50.818;6.972;2024-02-16T15:34:12;13.20;99.90
15636;DHT22;7917;50.818;6.972;2024-02-16T15:36:39;13.10;99.90
15636;DHT22;7917;50.818;6.972;2024-02-16T15:39:07;13.10;99.90
15636;DHT22;7917;50.818;6.972;2024-02-16T15:41:35;13.10;99.90
15636;DHT22;7917;50.818;6.972;2024-02-16T15:44:02;13.10;99.90
15636;DHT22;7917;50.818;6.972;2024-02-16T15:46:29;13.10;99.90
15636;DHT22;7917;50.818;6.972;2024-02-16T15:48:56;13.10;99.90
15636;DHT22;7917;50.818;6.972;2024-02-16T15:51:24;13.10;99.90